Austinburg, Ohio
Current Conditions -  °F | °C
As of 6:53 PM on Monday 24 Nov 2014 (Local Time) from KHZY Reporting Station
Clear Clear  
Wind Chill: 39°   Ceiling: Unl
Heat Index: 47°   Visibility: 10mi
Dew Point: 34°   Wind: 21mph
Humidity: 61%   Direction: 240°WSW
Pressure: 29.62"   Gusts: 31mph
Location:  41.77°N, 80.85°W
Report Text: KHZY 242353Z AUTO 24018G27KT 10SM CLR 08/01 A2962 RMK AO2 PK WND 22033/2322 SLP031 60006 T00830011 10178 20083 51057
Loading
Personal Weather Stations






























Interactive Weather Map New forecast layout! Learn more

10-Day Weather Forecast

Advertisements
Track Severe Weather on mobile